createdAt,value
2019-02-12T00:01:32.280Z,101178.70
2019-02-12T00:04:24.103Z,101177.27
2019-02-12T00:09:58.190Z,101188.08
2019-02-12T00:15:51.647Z,101189.25
2019-02-12T00:27:44.529Z,101219.67
2019-02-12T00:30:40.385Z,101220.70
2019-02-12T00:33:48.956Z,101222.10
2019-02-12T00:36:20.600Z,101228.95
2019-02-12T00:39:32.311Z,101225.69
2019-02-12T00:45:50.981Z,101206.75
2019-02-12T00:48:24.663Z,101199.85
2019-02-12T00:50:55.461Z,101195.66
2019-02-12T00:56:28.860Z,101209.02
2019-02-12T00:58:59.804Z,101216.55
2019-02-12T01:01:31.439Z,101216.06
2019-02-12T01:04:22.221Z,101221.25
2019-02-12T01:06:53.126Z,101224.89
2019-02-12T01:09:24.896Z,101234.17
2019-02-12T01:12:14.788Z,101235.15
2019-02-12T01:20:13.007Z,101240.37
2019-02-12T01:22:43.911Z,101238.16
2019-02-12T01:25:34.647Z,101244.62
2019-02-12T01:28:05.464Z,101246.12
2019-02-12T01:30:37.198Z,101250.13
2019-02-12T01:33:28.732Z,101254.25
2019-02-12T01:36:00.319Z,101257.30
2019-02-12T01:38:31.396Z,101253.80
2019-02-12T01:41:22.366Z,101248.72
2019-02-12T01:43:53.419Z,101258.88
2019-02-12T01:46:25.027Z,101261.01
2019-02-12T01:49:15.090Z,101255.81
2019-02-12T01:51:46.705Z,101251.41
2019-02-12T01:54:36.827Z,101246.60
2019-02-12T01:57:08.490Z,101246.60
2019-02-12T01:59:40.226Z,101252.78
2019-02-12T02:05:23.495Z,101241.99
2019-02-12T02:07:54.372Z,101256.06
2019-02-12T02:16:40.094Z,101242.45
2019-02-12T02:22:50.968Z,101247.27
2019-02-12T02:25:51.919Z,101248.59
2019-02-12T02:31:31.258Z,101253.48
2019-02-12T02:37:35.765Z,101242.25
2019-02-12T02:40:29.990Z,101243.86
2019-02-12T02:43:05.853Z,101246.67
2019-02-12T02:46:06.107Z,101254.64
2019-02-12T02:48:39.457Z,101256.16
2019-02-12T02:51:33.301Z,101269.37
2019-02-12T03:00:28.680Z,101277.16
2019-02-12T03:03:22.025Z,101253.48
2019-02-12T03:05:54.944Z,101279.31
2019-02-12T03:08:37.862Z,101288.14
2019-02-12T03:17:37.124Z,101288.59
2019-02-12T03:20:29.213Z,101300.48
2019-02-12T03:23:00.959Z,101301.44
2019-02-12T03:31:42.230Z,101308.35
2019-02-12T03:34:32.145Z,101312.20
2019-02-12T03:40:08.459Z,101312.20
2019-02-12T03:46:10.512Z,101310.50
2019-02-12T03:55:29.855Z,101311.11
2019-02-12T03:58:32.002Z,101318.98
2019-02-12T04:01:22.715Z,101325.61
2019-02-12T04:03:53.827Z,101327.92
2019-02-12T04:06:26.691Z,101323.22
2019-02-12T04:09:17.516Z,101308.70
2019-02-12T04:11:48.887Z,101324.41
2019-02-12T04:17:11.206Z,101316.08
2019-02-12T04:19:42.818Z,101311.12
2019-02-12T04:22:32.490Z,101307.09
2019-02-12T04:25:03.680Z,101316.81
2019-02-12T04:27:35.418Z,101310.91
2019-02-12T04:30:44.388Z,101328.42
2019-02-12T04:33:34.901Z,101327.88
2019-02-12T04:36:39.114Z,101323.09
2019-02-12T04:39:02.165Z,101320.22
2019-02-12T04:42:12.466Z,101321.24
2019-02-12T04:44:43.455Z,101324.09
2019-02-12T04:47:34.269Z,101314.05
2019-02-12T04:50:06.431Z,101305.73
2019-02-12T04:55:39.786Z,101295.84
2019-02-12T04:58:29.758Z,101307.02
2019-02-12T05:01:00.646Z,101313.05
2019-02-12T05:03:32.020Z,101332.61
2019-02-12T05:09:37.240Z,101343.45
2019-02-12T05:12:18.375Z,101322.88
2019-02-12T05:14:49.072Z,101350.54
2019-02-12T05:20:22.806Z,101348.67
2019-02-12T05:22:53.725Z,101346.13
2019-02-12T05:25:44.548Z,101347.35
2019-02-12T05:28:16.220Z,101347.35
2019-02-12T05:30:47.847Z,101353.00
2019-02-12T05:33:18.699Z,101345.13
2019-02-12T05:39:11.604Z,101355.52
2019-02-12T05:41:42.368Z,101330.23
2019-02-12T05:47:06.893Z,101351.97
2019-02-12T05:49:57.062Z,101347.53
2019-02-12T05:52:28.056Z,101356.72
2019-02-12T05:55:18.684Z,101347.36
2019-02-12T05:57:49.366Z,101348.09
2019-02-12T06:03:06.204Z,101335.74
2019-02-12T06:12:08.836Z,101339.50
2019-02-12T06:15:00.694Z,101347.71
2019-02-12T06:17:51.400Z,101356.72
2019-02-12T06:20:23.264Z,101349.47
2019-02-12T06:23:03.026Z,101350.91
2019-02-12T06:28:28.245Z,101362.16
2019-02-12T06:31:37.282Z,101383.41
2019-02-12T06:34:27.152Z,101371.81
2019-02-12T06:40:02.747Z,101392.52
2019-02-12T06:42:34.449Z,101399.52
2019-02-12T06:45:11.710Z,101391.97
2019-02-12T06:50:26.150Z,101396.64
2019-02-12T06:52:56.928Z,101386.30
2019-02-12T06:55:28.665Z,101383.38
2019-02-12T06:57:59.510Z,101395.63
2019-02-12T07:00:31.203Z,101398.98
2019-02-12T07:07:41.643Z,101398.16
2019-02-12T07:10:45.493Z,101411.24
2019-02-12T07:13:54.385Z,101417.94
2019-02-12T07:17:00.618Z,101404.60
2019-02-12T07:19:54.603Z,101417.52
2019-02-12T07:23:04.478Z,101427.52
2019-02-12T07:26:13.419Z,101434.07
2019-02-12T07:29:22.420Z,101427.42
2019-02-12T07:32:41.813Z,101444.55
2019-02-12T07:38:58.183Z,101447.13
2019-02-12T07:42:09.042Z,101456.60
2019-02-12T07:45:18.862Z,101455.84
2019-02-12T07:48:28.708Z,101468.27
2019-02-12T07:51:28.326Z,101474.44
2019-02-12T07:54:37.274Z,101479.98
2019-02-12T07:58:07.831Z,101480.93
2019-02-12T08:01:17.617Z,101500.77
2019-02-12T08:04:27.455Z,101491.04
2019-02-12T08:07:37.291Z,101497.09
2019-02-12T08:10:46.451Z,101504.53
2019-02-12T08:13:55.352Z,101511.93
2019-02-12T08:16:49.001Z,101516.14
2019-02-12T08:19:58.159Z,101513.89
2019-02-12T08:23:20.925Z,101519.14
2019-02-12T08:26:18.598Z,101514.45
2019-02-12T08:29:28.242Z,101510.93
2019-02-12T08:32:20.431Z,101514.07
2019-02-12T08:35:33.572Z,101515.91
2019-02-12T08:38:38.347Z,101512.64
2019-02-12T08:41:48.209Z,101517.02
2019-02-12T08:44:58.225Z,101524.01
2019-02-12T08:48:09.331Z,101525.23
2019-02-12T08:51:32.906Z,101534.55
2019-02-12T08:54:32.510Z,101520.77
2019-02-12T08:57:34.642Z,101540.83
2019-02-12T09:04:20.006Z,101549.48
2019-02-12T09:07:22.219Z,101548.36
2019-02-12T09:10:31.185Z,101547.75
2019-02-12T09:16:27.112Z,101549.28
2019-02-12T09:19:36.158Z,101549.82
2019-02-12T09:22:46.856Z,101545.67
2019-02-12T09:29:03.921Z,101543.55
2019-02-12T09:32:12.802Z,101543.38
2019-02-12T09:38:17.986Z,101558.92
2019-02-12T09:41:45.747Z,101558.17
2019-02-12T09:44:56.828Z,101564.23
2019-02-12T09:48:06.556Z,101567.66
2019-02-12T09:51:14.569Z,101573.92
2019-02-12T09:54:37.193Z,101575.23
2019-02-12T09:57:36.631Z,101572.56
2019-02-12T10:00:48.697Z,101551.08
2019-02-12T10:03:57.602Z,101584.19
2019-02-12T10:06:55.872Z,101584.49
2019-02-12T10:10:04.661Z,101575.95
2019-02-12T10:13:13.488Z,101575.95
2019-02-12T10:16:22.311Z,101589.35
2019-02-12T10:19:31.288Z,101580.41
2019-02-12T10:22:43.667Z,101590.61
2019-02-12T10:25:52.558Z,101590.46
2019-02-12T10:29:21.116Z,101601.94
2019-02-12T10:32:11.155Z,101600.52
2019-02-12T10:34:42.999Z,101600.95
2019-02-12T10:37:14.697Z,101600.72
2019-02-12T10:40:07.149Z,101609.05
2019-02-12T10:42:38.068Z,101608.55
2019-02-12T10:45:28.895Z,101618.00
2019-02-12T10:48:02.717Z,101613.88
2019-02-12T10:57:08.417Z,101625.12
2019-02-12T11:03:02.372Z,101625.19
2019-02-12T11:05:34.225Z,101626.06
2019-02-12T11:08:42.876Z,101621.31
2019-02-12T11:18:09.258Z,101624.92
2019-02-12T11:20:59.312Z,101632.75
2019-02-12T11:23:50.100Z,101626.60
2019-02-12T11:26:40.041Z,101623.80
2019-02-12T11:32:45.428Z,101627.69
2019-02-12T11:35:19.861Z,101633.75
2019-02-12T11:38:29.367Z,101619.20
2019-02-12T11:53:45.864Z,101622.23
2019-02-12T11:56:35.779Z,101615.39
2019-02-12T12:05:17.764Z,101612.00
2019-02-12T12:08:07.528Z,101609.94
2019-02-12T12:14:11.742Z,101615.31
2019-02-12T12:20:05.506Z,101617.70
2019-02-12T12:25:59.098Z,101615.98
2019-02-12T12:28:22.304Z,101613.20
2019-02-12T12:31:12.876Z,101615.38
2019-02-12T12:33:44.530Z,101608.12
2019-02-12T12:36:34.113Z,101599.00
2019-02-12T12:39:24.078Z,101602.89
2019-02-12T12:42:25.973Z,101608.48
2019-02-12T12:51:35.767Z,101600.54
2019-02-12T12:54:28.514Z,101601.05
2019-02-12T12:56:59.346Z,101605.80
2019-02-12T13:00:09.486Z,101604.31
2019-02-12T13:02:42.184Z,101613.69
2019-02-12T13:05:33.608Z,101606.08
2019-02-12T13:08:24.358Z,101614.28
2019-02-12T13:10:55.243Z,101616.08
2019-02-12T13:13:41.800Z,101616.36
2019-02-12T13:16:03.462Z,101619.09
2019-02-12T13:18:34.333Z,101616.08
2019-02-12T13:21:26.652Z,101615.98
2019-02-12T13:29:41.053Z,101612.72
2019-02-12T13:32:11.917Z,101609.16
2019-02-12T13:35:05.600Z,101613.36
2019-02-12T13:40:53.085Z,101620.94
2019-02-12T13:43:12.398Z,101622.61
2019-02-12T13:48:43.901Z,101623.34
2019-02-12T13:51:16.796Z,101624.85
2019-02-12T13:53:47.782Z,101622.91
2019-02-12T13:56:39.818Z,101621.95
2019-02-12T13:59:33.806Z,101621.14
2019-02-12T14:02:41.996Z,101628.00
2019-02-12T14:05:28.021Z,101618.91
2019-02-12T14:10:50.460Z,101614.02
2019-02-12T14:13:40.397Z,101623.78
2019-02-12T14:16:43.654Z,101619.22
2019-02-12T14:22:17.781Z,101629.53
2019-02-12T14:25:15.665Z,101628.42
2019-02-12T14:27:27.121Z,101624.04
2019-02-12T14:30:37.285Z,101630.41
2019-02-12T14:37:01.227Z,101630.32
2019-02-12T14:39:45.355Z,101624.25
2019-02-12T14:44:31.180Z,101618.26
2019-02-12T14:47:21.368Z,101621.13
2019-02-12T14:53:20.509Z,101616.34
2019-02-12T14:56:01.426Z,101617.34
2019-02-12T14:58:33.079Z,101622.59
2019-02-12T15:04:33.316Z,101632.06
2019-02-12T15:07:07.523Z,101628.19
2019-02-12T15:09:58.262Z,101632.09
2019-02-12T15:13:04.268Z,101625.19
2019-02-12T15:15:54.057Z,101626.89
2019-02-12T15:18:25.748Z,101620.87
2019-02-12T15:27:11.656Z,101633.80
2019-02-12T15:30:02.484Z,101631.93
2019-02-12T15:35:44.642Z,101644.16
2019-02-12T15:38:15.516Z,101634.66
2019-02-12T15:41:06.669Z,101632.95
2019-02-12T15:43:59.900Z,101633.36
2019-02-12T15:47:22.279Z,101631.14
2019-02-12T15:56:19.058Z,101636.00
2019-02-12T15:58:53.693Z,101635.11
2019-02-12T16:01:49.115Z,101640.47
2019-02-12T16:08:14.272Z,101650.68
2019-02-12T16:10:42.012Z,101652.70
2019-02-12T16:16:21.992Z,101656.55
2019-02-12T16:18:39.014Z,101655.72
2019-02-12T16:21:10.741Z,101656.50
2019-02-12T16:24:01.516Z,101666.92
2019-02-12T16:26:51.360Z,101671.83
2019-02-12T16:29:23.125Z,101662.52
2019-02-12T16:31:56.971Z,101668.04
2019-02-12T16:34:50.700Z,101668.04
2019-02-12T16:40:46.622Z,101676.64
2019-02-12T16:46:17.724Z,101678.08
2019-02-12T16:48:51.412Z,101677.76
2019-02-12T16:51:22.378Z,101685.36
2019-02-12T16:57:05.262Z,101682.06
2019-02-12T16:59:59.323Z,101684.78
2019-02-12T17:03:10.961Z,101693.25
2019-02-12T17:09:19.188Z,101689.70
2019-02-12T17:11:58.696Z,101695.43
2019-02-12T17:14:42.686Z,101709.75
2019-02-12T17:17:51.910Z,101707.53
2019-02-12T17:20:22.868Z,101716.52
2019-02-12T17:23:12.858Z,101717.13
2019-02-12T17:26:02.217Z,101711.80
2019-02-12T17:28:33.520Z,101719.92
2019-02-12T17:31:04.369Z,101721.50
2019-02-12T17:33:53.381Z,101724.92
2019-02-12T17:36:26.593Z,101723.56
2019-02-12T17:39:12.453Z,101725.37
2019-02-12T17:42:10.327Z,101733.52
2019-02-12T17:45:08.030Z,101724.66
2019-02-12T17:48:21.236Z,101727.09
2019-02-12T17:57:46.516Z,101752.31
2019-02-12T18:00:37.997Z,101751.55
2019-02-12T18:06:26.933Z,101756.08
2019-02-12T18:08:45.529Z,101753.84
2019-02-12T18:11:16.455Z,101757.13
2019-02-12T18:14:07.176Z,101757.38
2019-02-12T18:16:38.022Z,101754.50
2019-02-12T18:19:32.726Z,101766.74
2019-02-12T18:22:22.608Z,101755.35
2019-02-12T18:24:54.274Z,101758.27
2019-02-12T18:27:44.105Z,101759.09
2019-02-12T18:36:04.581Z,101756.77
2019-02-12T18:38:54.337Z,101752.65
2019-02-12T18:45:06.425Z,101754.59
2019-02-12T18:47:37.345Z,101762.59
2019-02-12T18:53:17.211Z,101764.53
2019-02-12T18:56:09.244Z,101766.09
2019-02-12T18:58:59.105Z,101779.83
2019-02-12T19:01:50.825Z,101770.13
2019-02-12T19:04:46.299Z,101765.86
2019-02-12T19:07:54.059Z,101768.04
2019-02-12T19:11:18.024Z,101776.88
2019-02-12T19:13:55.557Z,101776.75
2019-02-12T19:19:44.506Z,101781.36
2019-02-12T19:25:41.921Z,101779.92
2019-02-12T19:28:11.868Z,101783.22
2019-02-12T19:30:59.051Z,101771.57
2019-02-12T19:33:59.649Z,101769.63
2019-02-12T19:36:30.528Z,101772.92
2019-02-12T19:42:23.786Z,101766.75
2019-02-12T19:45:03.666Z,101772.70
2019-02-12T19:48:00.354Z,101779.14
2019-02-12T19:54:13.854Z,101779.62
2019-02-12T20:06:47.404Z,101768.95
2019-02-12T20:09:52.365Z,101782.50
2019-02-12T20:12:01.883Z,101788.28
2019-02-12T20:18:00.799Z,101771.61
2019-02-12T20:21:11.041Z,101771.61
2019-02-12T20:24:19.644Z,101766.08
2019-02-12T20:27:09.619Z,101774.57
2019-02-12T20:30:00.334Z,101773.16
2019-02-12T20:32:52.416Z,101776.64
2019-02-12T20:35:58.939Z,101776.64
2019-02-12T20:41:59.751Z,101778.84
2019-02-12T20:44:30.559Z,101782.94
2019-02-12T20:47:44.388Z,101782.16
2019-02-12T20:54:06.935Z,101781.63
2019-02-12T20:56:58.373Z,101776.20
2019-02-12T21:00:08.179Z,101782.29
2019-02-12T21:03:13.825Z,101782.37
2019-02-12T21:05:54.456Z,101790.77
2019-02-12T21:09:24.624Z,101806.84
2019-02-12T21:12:25.033Z,101811.16
2019-02-12T21:15:35.824Z,101803.83
2019-02-12T21:18:54.381Z,101811.74
2019-02-12T21:26:12.574Z,101807.84
2019-02-12T21:32:44.100Z,101799.77
2019-02-12T21:42:32.670Z,101788.35
2019-02-12T21:49:46.599Z,101804.44
2019-02-12T21:56:22.604Z,101811.44
2019-02-12T22:05:47.343Z,101801.09
2019-02-12T22:15:44.226Z,101784.94
2019-02-12T22:18:56.996Z,101803.83
2019-02-12T22:29:20.051Z,101805.36
2019-02-12T22:35:05.081Z,101815.66
2019-02-12T22:38:36.336Z,101816.87
2019-02-12T22:45:27.720Z,101814.72
2019-02-12T22:51:04.347Z,101829.80
2019-02-12T22:54:01.935Z,101820.04
2019-02-12T22:57:15.038Z,101818.31
2019-02-12T23:05:44.898Z,101814.80
2019-02-12T23:08:53.101Z,101813.96
2019-02-12T23:15:13.409Z,101822.73
2019-02-12T23:18:00.089Z,101828.81
2019-02-12T23:21:21.818Z,101835.55
2019-02-12T23:24:12.403Z,101830.71
2019-02-12T23:30:16.744Z,101826.38
2019-02-12T23:33:15.486Z,101821.38
2019-02-12T23:35:49.267Z,101821.98
2019-02-12T23:38:38.641Z,101815.78
2019-02-12T23:41:09.784Z,101820.43
2019-02-12T23:43:59.797Z,101821.47
2019-02-12T23:46:32.486Z,101821.18
2019-02-12T23:49:23.417Z,101813.13
2019-02-12T23:51:54.556Z,101815.77
2019-02-12T23:54:45.289Z,101806.77
2019-02-12T23:57:22.196Z,101822.74
